Decoded Metar for EPLL (LODZ in POLAND) (IATA:N/A) | Meteo·Mobile Aviation Weather
aviador You're here:

EPLL Decoded Metar

LODZ in POLAND
Report Time2018-08-21 10:30:00
UTC Time2018-08-21 10:37:28
Flight Rules vfr VFR
Wind300° at 09 kt
W.Decomp.*RWY 25: 6.3 kt HW 6.5 kt RCW
W.Rank300° ranks 17
Current wind is above 300° avg. (5.6)
Visibility9999 m
Phenomena:N/A
Clouds:Scattered 034 Hf
Scattered 041 Hf
Expected CloudBase > 3,600 ft AGL from Temp-Dew spread
CeilingNone
Temp21°C (ISA +7)
Dew Point12°C (57% RH)
AAT18.4°C
QNH1020 hPa
Density Alt1,398 ft
Elevation604 ft
Report Wrong Elevation
Raw Report
EPLL 211030Z 30009KT 250V360 9999 SCT034 SCT041 21/12 Q1020=

Extra information for EPLL:More info

Metar Taf Metar & Taf Last 4 Metars F.Rules Stats Wind Profile Meteogram Temp Stats Airport Information Weather charts Add Link Nearby VenuesMetar ALERT Operation Metar Decoded Social comments